sensor_id;sensor_type;location;lat;lon;timestamp;pressure;altitude;pressure_sealevel;temperature;humidity
7433;BME280;32233;49.500;7.764;2023-04-04T00:01:42;99452.28;;;-1.09;72.17
7433;BME280;32233;49.500;7.764;2023-04-04T00:04:09;99447.59;;;-1.04;72.35
7433;BME280;32233;49.500;7.764;2023-04-04T00:06:35;99441.69;;;-1.06;73.25
7433;BME280;32233;49.500;7.764;2023-04-04T00:09:02;99443.03;;;-1.13;71.81
7433;BME280;32233;49.500;7.764;2023-04-04T00:11:29;99437.34;;;-1.18;72.13
7433;BME280;32233;49.500;7.764;2023-04-04T00:13:56;99429.75;;;-1.21;72.98
7433;BME280;32233;49.500;7.764;2023-04-04T00:16:22;99431.91;;;-1.15;71.85
7433;BME280;32233;49.500;7.764;2023-04-04T00:18:49;99439.94;;;-1.18;71.67
7433;BME280;32233;49.500;7.764;2023-04-04T00:21:16;99433.59;;;-1.27;71.77
7433;BME280;32233;49.500;7.764;2023-04-04T00:23:43;99427.78;;;-1.30;72.26
7433;BME280;32233;49.500;7.764;2023-04-04T00:26:10;99427.84;;;-1.32;71.51
7433;BME280;32233;49.500;7.764;2023-04-04T00:28:38;99431.72;;;-1.37;72.92
7433;BME280;32233;49.500;7.764;2023-04-04T00:31:04;99424.88;;;-1.26;74.53
7433;BME280;32233;49.500;7.764;2023-04-04T00:33:31;99428.69;;;-1.44;72.59
7433;BME280;32233;49.500;7.764;2023-04-04T00:35:58;99420.59;;;-1.39;73.15
7433;BME280;32233;49.500;7.764;2023-04-04T00:38:25;99418.53;;;-1.34;73.71
7433;BME280;32233;49.500;7.764;2023-04-04T00:40:51;99422.66;;;-1.44;73.02
7433;BME280;32233;49.500;7.764;2023-04-04T00:43:18;99417.91;;;-1.51;72.97
7433;BME280;32233;49.500;7.764;2023-04-04T00:45:45;99411.97;;;-1.53;73.51
7433;BME280;32233;49.500;7.764;2023-04-04T00:48:12;99415.19;;;-1.49;73.61
7433;BME280;32233;49.500;7.764;2023-04-04T00:50:38;99415.72;;;-1.44;73.47
7433;BME280;32233;49.500;7.764;2023-04-04T00:53:05;99404.50;;;-1.44;73.39
7433;BME280;32233;49.500;7.764;2023-04-04T00:55:32;99405.50;;;-1.60;74.53
7433;BME280;32233;49.500;7.764;2023-04-04T00:57:59;99407.59;;;-1.65;74.66
7433;BME280;32233;49.500;7.764;2023-04-04T01:00:26;99412.13;;;-1.68;75.29
7433;BME280;32233;49.500;7.764;2023-04-04T01:02:53;99407.16;;;-1.71;75.85
7433;BME280;32233;49.500;7.764;2023-04-04T01:05:19;99404.47;;;-1.70;75.29
7433;BME280;32233;49.500;7.764;2023-04-04T01:07:46;99398.84;;;-1.77;73.81
7433;BME280;32233;49.500;7.764;2023-04-04T01:10:13;99395.22;;;-1.74;75.29
7433;BME280;32233;49.500;7.764;2023-04-04T01:12:40;99394.22;;;-1.71;76.87
7433;BME280;32233;49.500;7.764;2023-04-04T01:15:07;99401.50;;;-1.91;75.70
7433;BME280;32233;49.500;7.764;2023-04-04T01:17:34;99397.59;;;-1.84;75.47
7433;BME280;32233;49.500;7.764;2023-04-04T01:20:05;99393.63;;;-1.89;76.55
7433;BME280;32233;49.500;7.764;2023-04-04T01:22:44;99393.94;;;-1.94;77.64
7433;BME280;32233;49.500;7.764;2023-04-04T01:25:13;99393.59;;;-2.02;75.84
7433;BME280;32233;49.500;7.764;2023-04-04T01:27:43;99395.25;;;-2.01;77.74
7433;BME280;32233;49.500;7.764;2023-04-04T01:30:14;99387.25;;;-2.11;77.29
7433;BME280;32233;49.500;7.764;2023-04-04T01:32:46;99388.81;;;-2.08;77.51
7433;BME280;32233;49.500;7.764;2023-04-04T01:35:37;99381.13;;;-2.10;79.19
7433;BME280;32233;49.500;7.764;2023-04-04T01:38:13;99389.66;;;-2.08;77.73
7433;BME280;32233;49.500;7.764;2023-04-04T01:40:47;99385.03;;;-2.17;77.47
7433;BME280;32233;49.500;7.764;2023-04-04T01:43:15;99384.41;;;-2.20;77.88
7433;BME280;32233;49.500;7.764;2023-04-04T01:45:43;99385.63;;;-2.26;78.08
7433;BME280;32233;49.500;7.764;2023-04-04T01:48:11;99374.06;;;-2.20;79.83
7433;BME280;32233;49.500;7.764;2023-04-04T01:50:39;99378.59;;;-2.24;77.69
7433;BME280;32233;49.500;7.764;2023-04-04T01:53:07;99378.03;;;-2.29;78.37
7433;BME280;32233;49.500;7.764;2023-04-04T01:55:34;99368.66;;;-2.17;78.21
7433;BME280;32233;49.500;7.764;2023-04-04T01:58:01;99370.22;;;-2.15;80.03
7433;BME280;32233;49.500;7.764;2023-04-04T02:00:29;99373.19;;;-2.21;80.07
7433;BME280;32233;49.500;7.764;2023-04-04T02:02:55;99372.28;;;-2.20;78.86
7433;BME280;32233;49.500;7.764;2023-04-04T02:05:22;99372.97;;;-2.04;78.85
7433;BME280;32233;49.500;7.764;2023-04-04T02:07:49;99375.88;;;-2.08;77.96
7433;BME280;32233;49.500;7.764;2023-04-04T02:10:25;99372.97;;;-2.04;78.04
7433;BME280;32233;49.500;7.764;2023-04-04T02:12:52;99368.50;;;-2.02;78.49
7433;BME280;32233;49.500;7.764;2023-04-04T02:15:21;99369.28;;;-2.14;77.38
7433;BME280;32233;49.500;7.764;2023-04-04T02:17:47;99374.88;;;-2.20;78.16
7433;BME280;32233;49.500;7.764;2023-04-04T02:20:14;99375.06;;;-2.23;78.82
7433;BME280;32233;49.500;7.764;2023-04-04T02:22:53;99373.47;;;-2.11;79.39
7433;BME280;32233;49.500;7.764;2023-04-04T02:25:21;99375.66;;;-2.05;78.92
7433;BME280;32233;49.500;7.764;2023-04-04T02:27:48;99370.03;;;-2.12;77.60
7433;BME280;32233;49.500;7.764;2023-04-04T02:30:15;99376.66;;;-2.20;79.16
7433;BME280;32233;49.500;7.764;2023-04-04T02:32:43;99380.06;;;-2.20;77.87
7433;BME280;32233;49.500;7.764;2023-04-04T02:35:14;99380.97;;;-2.21;77.03
7433;BME280;32233;49.500;7.764;2023-04-04T02:37:43;99379.84;;;-2.17;77.93
7433;BME280;32233;49.500;7.764;2023-04-04T02:40:15;99380.72;;;-2.31;77.31
7433;BME280;32233;49.500;7.764;2023-04-04T02:42:43;99371.84;;;-2.27;79.34
7433;BME280;32233;49.500;7.764;2023-04-04T02:45:10;99377.81;;;-2.39;79.25
7433;BME280;32233;49.500;7.764;2023-04-04T02:47:39;99376.22;;;-2.41;78.32
7433;BME280;32233;49.500;7.764;2023-04-04T02:50:08;99376.88;;;-2.38;77.82
7433;BME280;32233;49.500;7.764;2023-04-04T02:52:37;99374.53;;;-2.28;77.72
7433;BME280;32233;49.500;7.764;2023-04-04T02:55:09;99371.50;;;-2.35;77.18
7433;BME280;32233;49.500;7.764;2023-04-04T02:57:40;99371.50;;;-2.35;77.47
7433;BME280;32233;49.500;7.764;2023-04-04T03:00:07;99371.72;;;-2.25;76.23
7433;BME280;32233;49.500;7.764;2023-04-04T03:02:35;99373.78;;;-2.30;75.92
7433;BME280;32233;49.500;7.764;2023-04-04T03:05:02;99380.44;;;-2.26;77.00
7433;BME280;32233;49.500;7.764;2023-04-04T03:07:28;99376.19;;;-2.27;75.41
7433;BME280;32233;49.500;7.764;2023-04-04T03:09:55;99374.78;;;-2.18;76.57
7433;BME280;32233;49.500;7.764;2023-04-04T03:12:22;99372.59;;;-2.25;75.95
7433;BME280;32233;49.500;7.764;2023-04-04T03:14:49;99370.19;;;-2.28;75.11
7433;BME280;32233;49.500;7.764;2023-04-04T03:17:16;99369.78;;;-2.21;75.65
7433;BME280;32233;49.500;7.764;2023-04-04T03:19:44;99368.97;;;-2.22;74.27
7433;BME280;32233;49.500;7.764;2023-04-04T03:22:11;99376.72;;;-2.22;75.03
7433;BME280;32233;49.500;7.764;2023-04-04T03:24:37;99374.31;;;-2.25;74.16
7433;BME280;32233;49.500;7.764;2023-04-04T03:27:05;99373.47;;;-2.11;74.33
7433;BME280;32233;49.500;7.764;2023-04-04T03:29:31;99380.59;;;-2.15;73.74
7433;BME280;32233;49.500;7.764;2023-04-04T03:31:58;99380.88;;;-2.19;73.79
7433;BME280;32233;49.500;7.764;2023-04-04T03:34:25;99372.94;;;-2.16;74.16
7433;BME280;32233;49.500;7.764;2023-04-04T03:36:52;99367.94;;;-2.19;73.40
7433;BME280;32233;49.500;7.764;2023-04-04T03:39:19;99370.00;;;-2.25;73.57
7433;BME280;32233;49.500;7.764;2023-04-04T03:41:46;99370.28;;;-2.29;73.86
7433;BME280;32233;49.500;7.764;2023-04-04T03:44:13;99371.72;;;-2.25;74.68
7433;BME280;32233;49.500;7.764;2023-04-04T03:46:39;99376.19;;;-2.27;74.16
7433;BME280;32233;49.500;7.764;2023-04-04T03:49:10;99371.94;;;-2.28;74.89
7433;BME280;32233;49.500;7.764;2023-04-04T03:51:37;99360.47;;;-2.24;74.01
7433;BME280;32233;49.500;7.764;2023-04-04T03:54:03;99368.44;;;-2.27;73.21
7433;BME280;32233;49.500;7.764;2023-04-04T03:56:30;99356.19;;;-2.25;73.39
7433;BME280;32233;49.500;7.764;2023-04-04T03:59:03;99359.72;;;-2.26;73.75
7433;BME280;32233;49.500;7.764;2023-04-04T04:01:30;99348.84;;;-2.31;73.23
7433;BME280;32233;49.500;7.764;2023-04-04T04:03:56;99354.94;;;-2.32;74.07
7433;BME280;32233;49.500;7.764;2023-04-04T04:06:23;99353.25;;;-2.33;74.68
7433;BME280;32233;49.500;7.764;2023-04-04T04:08:49;99356.72;;;-2.33;74.92
7433;BME280;32233;49.500;7.764;2023-04-04T04:11:16;99361.31;;;-2.38;75.35
7433;BME280;32233;49.500;7.764;2023-04-04T04:13:42;99353.13;;;-2.44;74.33
7433;BME280;32233;49.500;7.764;2023-04-04T04:16:09;99357.84;;;-2.37;74.37
7433;BME280;32233;49.500;7.764;2023-04-04T04:18:36;99363.84;;;-2.36;75.24
7433;BME280;32233;49.500;7.764;2023-04-04T04:21:07;99354.91;;;-2.45;75.30
7433;BME280;32233;49.500;7.764;2023-04-04T04:23:35;99353.78;;;-2.41;75.10
7433;BME280;32233;49.500;7.764;2023-04-04T04:26:01;99361.56;;;-2.55;75.64
7433;BME280;32233;49.500;7.764;2023-04-04T04:28:28;99353.78;;;-2.41;76.01
7433;BME280;32233;49.500;7.764;2023-04-04T04:31:07;99356.03;;;-2.49;74.51
7433;BME280;32233;49.500;7.764;2023-04-04T04:33:40;99349.44;;;-2.55;75.03
7433;BME280;32233;49.500;7.764;2023-04-04T04:36:08;99355.44;;;-2.54;75.80
7433;BME280;32233;49.500;7.764;2023-04-04T04:38:48;99353.06;;;-2.57;75.00
7433;BME280;32233;49.500;7.764;2023-04-04T04:41:15;99357.03;;;-2.52;74.89
7433;BME280;32233;49.500;7.764;2023-04-04T04:43:46;99363.81;;;-2.63;76.35
7433;BME280;32233;49.500;7.764;2023-04-04T04:46:13;99359.25;;;-2.60;76.10
7433;BME280;32233;49.500;7.764;2023-04-04T04:48:40;99359.16;;;-2.58;75.19
7433;BME280;32233;49.500;7.764;2023-04-04T04:51:07;99359.84;;;-2.69;76.52
7433;BME280;32233;49.500;7.764;2023-04-04T04:53:41;99361.75;;;-2.58;74.72
7433;BME280;32233;49.500;7.764;2023-04-04T04:56:08;99357.50;;;-2.59;76.02
7433;BME280;32233;49.500;7.764;2023-04-04T04:58:39;99354.09;;;-2.60;75.31
7433;BME280;32233;49.500;7.764;2023-04-04T05:01:08;99359.94;;;-2.70;75.92
7433;BME280;32233;49.500;7.764;2023-04-04T05:03:38;99353.44;;;-2.63;75.83
7433;BME280;32233;49.500;7.764;2023-04-04T05:06:07;99351.69;;;-2.63;76.71
7433;BME280;32233;49.500;7.764;2023-04-04T05:08:36;99350.31;;;-2.68;76.36
7433;BME280;32233;49.500;7.764;2023-04-04T05:11:14;99357.97;;;-2.67;76.15
7433;BME280;32233;49.500;7.764;2023-04-04T05:13:40;99354.03;;;-2.72;76.43
7433;BME280;32233;49.500;7.764;2023-04-04T05:16:07;99352.91;;;-2.68;77.38
7433;BME280;32233;49.500;7.764;2023-04-04T05:18:35;99354.66;;;-2.69;75.67
7433;BME280;32233;49.500;7.764;2023-04-04T05:21:06;99359.09;;;-2.71;76.36
7433;BME280;32233;49.500;7.764;2023-04-04T05:23:32;99363.69;;;-2.62;76.14
7433;BME280;32233;49.500;7.764;2023-04-04T05:25:59;99363.69;;;-2.47;75.76
7433;BME280;32233;49.500;7.764;2023-04-04T05:28:30;99362.50;;;-2.56;75.51
7433;BME280;32233;49.500;7.764;2023-04-04T05:31:00;99360.59;;;-2.40;75.02
7433;BME280;32233;49.500;7.764;2023-04-04T05:33:29;99361.78;;;-2.31;75.53
7433;BME280;32233;49.500;7.764;2023-04-04T05:36:06;99366.97;;;-2.31;74.79
7433;BME280;32233;49.500;7.764;2023-04-04T05:38:39;99370.09;;;-1.99;73.25
7433;BME280;32233;49.500;7.764;2023-04-04T05:41:06;99358.41;;;-1.79;72.05
7433;BME280;32233;49.500;7.764;2023-04-04T05:43:33;99361.94;;;-0.41;66.31
7433;BME280;32233;49.500;7.764;2023-04-04T05:46:05;99360.13;;;1.00;60.55
7433;BME280;32233;49.500;7.764;2023-04-04T05:48:38;99359.66;;;1.06;59.80
7433;BME280;32233;49.500;7.764;2023-04-04T05:51:05;99367.34;;;2.17;57.31
7433;BME280;32233;49.500;7.764;2023-04-04T05:53:55;99361.41;;;2.98;54.82
7433;BME280;32233;49.500;7.764;2023-04-04T05:56:28;99355.72;;;2.63;53.58
7433;BME280;32233;49.500;7.764;2023-04-04T05:58:56;99366.31;;;2.61;54.25
7433;BME280;32233;49.500;7.764;2023-04-04T06:01:25;99366.22;;;1.98;55.57
7433;BME280;32233;49.500;7.764;2023-04-04T06:03:54;99365.66;;;1.18;56.93
7433;BME280;32233;49.500;7.764;2023-04-04T06:06:26;99364.75;;;1.08;59.05
7433;BME280;32233;49.500;7.764;2023-04-04T06:08:52;99366.41;;;1.31;58.04
7433;BME280;32233;49.500;7.764;2023-04-04T06:11:19;99360.13;;;1.00;58.24
7433;BME280;32233;49.500;7.764;2023-04-04T06:13:49;99356.69;;;3.73;51.54
7433;BME280;32233;49.500;7.764;2023-04-04T06:16:18;99366.28;;;3.13;51.55
7433;BME280;32233;49.500;7.764;2023-04-04T06:18:46;99360.75;;;4.72;48.20
7433;BME280;32233;49.500;7.764;2023-04-04T06:21:13;99350.22;;;4.35;48.12
7433;BME280;32233;49.500;7.764;2023-04-04T06:23:39;99356.25;;;5.12;46.83
7433;BME280;32233;49.500;7.764;2023-04-04T06:26:06;99355.75;;;4.99;46.52
7433;BME280;32233;49.500;7.764;2023-04-04T06:28:34;99365.25;;;4.23;48.54
7433;BME280;32233;49.500;7.764;2023-04-04T06:31:04;99363.75;;;5.80;44.51
7433;BME280;32233;49.500;7.764;2023-04-04T06:33:32;99365.16;;;5.74;45.41
7433;BME280;32233;49.500;7.764;2023-04-04T06:35:59;99374.59;;;2.97;50.13
7433;BME280;32233;49.500;7.764;2023-04-04T06:38:26;99371.50;;;3.13;50.47
7433;BME280;32233;49.500;7.764;2023-04-04T06:40:58;99368.66;;;3.85;47.83
7433;BME280;32233;49.500;7.764;2023-04-04T06:43:27;99373.63;;;4.66;46.80
7433;BME280;32233;49.500;7.764;2023-04-04T06:45:56;99375.56;;;4.15;49.17
7433;BME280;32233;49.500;7.764;2023-04-04T06:48:23;99377.88;;;5.51;45.46
7433;BME280;32233;49.500;7.764;2023-04-04T06:50:50;99375.78;;;5.17;44.77
7433;BME280;32233;49.500;7.764;2023-04-04T06:53:17;99377.56;;;5.27;45.54
7433;BME280;32233;49.500;7.764;2023-04-04T06:55:44;99377.38;;;5.65;43.98
7433;BME280;32233;49.500;7.764;2023-04-04T06:58:10;99387.25;;;6.35;42.82
7433;BME280;32233;49.500;7.764;2023-04-04T07:00:37;99377.00;;;6.93;41.30
7433;BME280;32233;49.500;7.764;2023-04-04T07:03:04;99377.53;;;6.97;42.16
7433;BME280;32233;49.500;7.764;2023-04-04T07:05:31;99380.25;;;5.72;42.39
7433;BME280;32233;49.500;7.764;2023-04-04T07:07:57;99372.22;;;6.89;40.88
7433;BME280;32233;49.500;7.764;2023-04-04T07:10:24;99374.81;;;7.07;39.72
7433;BME280;32233;49.500;7.764;2023-04-04T07:12:51;99376.72;;;6.97;41.03
7433;BME280;32233;49.500;7.764;2023-04-04T07:15:18;99383.31;;;5.40;43.36
7433;BME280;32233;49.500;7.764;2023-04-04T07:17:45;99382.97;;;4.78;45.22
7433;BME280;32233;49.500;7.764;2023-04-04T07:20:11;99371.47;;;4.89;44.04
7433;BME280;32233;49.500;7.764;2023-04-04T07:22:39;99375.50;;;5.20;44.25
7433;BME280;32233;49.500;7.764;2023-04-04T07:25:06;99382.00;;;4.79;45.56
7433;BME280;32233;49.500;7.764;2023-04-04T07:27:33;99375.03;;;6.61;42.66
7433;BME280;32233;49.500;7.764;2023-04-04T07:30:00;99380.50;;;6.94;42.13
7433;BME280;32233;49.500;7.764;2023-04-04T07:32:26;99374.78;;;6.81;41.80
7433;BME280;32233;49.500;7.764;2023-04-04T07:34:54;99378.72;;;6.33;42.68
7433;BME280;32233;49.500;7.764;2023-04-04T07:37:21;99377.75;;;5.15;44.18
7433;BME280;32233;49.500;7.764;2023-04-04T07:39:47;99381.53;;;4.93;46.04
7433;BME280;32233;49.500;7.764;2023-04-04T07:42:15;99373.63;;;6.13;43.94
7433;BME280;32233;49.500;7.764;2023-04-04T07:44:49;99372.44;;;7.30;41.98
7433;BME280;32233;49.500;7.764;2023-04-04T07:47:16;99379.19;;;6.72;42.35
7433;BME280;32233;49.500;7.764;2023-04-04T07:49:43;99377.25;;;6.56;41.21
7433;BME280;32233;49.500;7.764;2023-04-04T07:52:10;99381.72;;;6.02;43.10
7433;BME280;32233;49.500;7.764;2023-04-04T07:54:37;99373.84;;;6.38;42.23
7433;BME280;32233;49.500;7.764;2023-04-04T07:57:05;99377.38;;;5.38;43.84
7433;BME280;32233;49.500;7.764;2023-04-04T07:59:35;99381.34;;;5.14;44.12
7433;BME280;32233;49.500;7.764;2023-04-04T08:02:02;99376.34;;;6.91;41.61
7433;BME280;32233;49.500;7.764;2023-04-04T08:04:28;99368.50;;;5.66;42.31
7433;BME280;32233;49.500;7.764;2023-04-04T08:06:55;99365.53;;;6.94;39.97
7433;BME280;32233;49.500;7.764;2023-04-04T08:09:22;99365.78;;;8.35;37.86
7433;BME280;32233;49.500;7.764;2023-04-04T08:11:48;99361.00;;;8.06;38.96
7433;BME280;32233;49.500;7.764;2023-04-04T08:14:15;99362.16;;;8.28;37.06
7433;BME280;32233;49.500;7.764;2023-04-04T08:16:41;99362.28;;;9.08;34.48
7433;BME280;32233;49.500;7.764;2023-04-04T08:19:08;99367.03;;;7.31;37.41
7433;BME280;32233;49.500;7.764;2023-04-04T08:21:35;99369.91;;;8.13;37.12
7433;BME280;32233;49.500;7.764;2023-04-04T08:24:01;99359.72;;;9.31;36.46
7433;BME280;32233;49.500;7.764;2023-04-04T08:26:28;99367.06;;;7.90;38.32
7433;BME280;32233;49.500;7.764;2023-04-04T08:28:54;99360.81;;;7.99;36.76
7433;BME280;32233;49.500;7.764;2023-04-04T08:31:21;99371.72;;;7.11;39.72
7433;BME280;32233;49.500;7.764;2023-04-04T08:33:48;99369.25;;;6.84;40.31
7433;BME280;32233;49.500;7.764;2023-04-04T08:36:15;99368.81;;;6.97;40.05
7433;BME280;32233;49.500;7.764;2023-04-04T08:38:41;99367.78;;;6.89;40.09
7433;BME280;32233;49.500;7.764;2023-04-04T08:41:10;99366.31;;;7.55;38.60
7433;BME280;32233;49.500;7.764;2023-04-04T08:43:38;99370.47;;;6.45;40.75
7433;BME280;32233;49.500;7.764;2023-04-04T08:46:07;99361.72;;;6.63;40.57
7433;BME280;32233;49.500;7.764;2023-04-04T08:48:38;99359.88;;;8.82;37.49
7433;BME280;32233;49.500;7.764;2023-04-04T08:51:07;99361.31;;;7.94;39.12
7433;BME280;32233;49.500;7.764;2023-04-04T08:53:36;99379.63;;;6.41;41.63
7433;BME280;32233;49.500;7.764;2023-04-04T08:56:02;99369.34;;;6.74;41.02
7433;BME280;32233;49.500;7.764;2023-04-04T08:58:29;99369.28;;;6.92;40.40
7433;BME280;32233;49.500;7.764;2023-04-04T09:00:56;99372.13;;;6.73;40.57
7433;BME280;32233;49.500;7.764;2023-04-04T09:03:25;99370.38;;;8.00;37.86
7433;BME280;32233;49.500;7.764;2023-04-04T09:05:53;99373.22;;;7.56;39.48
7433;BME280;32233;49.500;7.764;2023-04-04T09:08:20;99376.31;;;7.43;40.04
7433;BME280;32233;49.500;7.764;2023-04-04T09:10:51;99382.50;;;6.56;41.05
7433;BME280;32233;49.500;7.764;2023-04-04T09:13:18;99373.53;;;7.53;38.52
7433;BME280;32233;49.500;7.764;2023-04-04T09:15:47;99387.28;;;6.17;41.26
7433;BME280;32233;49.500;7.764;2023-04-04T09:18:15;99377.97;;;7.10;38.81
7433;BME280;32233;49.500;7.764;2023-04-04T09:20:43;99358.19;;;7.99;38.50
7433;BME280;32233;49.500;7.764;2023-04-04T09:23:14;99366.88;;;7.91;38.43
7433;BME280;32233;49.500;7.764;2023-04-04T09:25:47;99369.81;;;6.95;40.74
7433;BME280;32233;49.500;7.764;2023-04-04T09:28:29;99373.34;;;7.55;40.00
7433;BME280;32233;49.500;7.764;2023-04-04T09:30:59;99363.72;;;7.29;39.66
7433;BME280;32233;49.500;7.764;2023-04-04T09:33:25;99363.56;;;7.23;39.84
7433;BME280;32233;49.500;7.764;2023-04-04T09:36:01;99366.34;;;7.63;38.47
7433;BME280;32233;49.500;7.764;2023-04-04T09:38:29;99359.66;;;7.85;39.52
7433;BME280;32233;49.500;7.764;2023-04-04T09:40:58;99364.97;;;7.43;41.88
7433;BME280;32233;49.500;7.764;2023-04-04T09:43:25;99349.78;;;8.12;39.68
7433;BME280;32233;49.500;7.764;2023-04-04T09:45:53;99354.06;;;9.03;37.99
7433;BME280;32233;49.500;7.764;2023-04-04T09:48:29;99348.16;;;8.84;37.03
7433;BME280;32233;49.500;7.764;2023-04-04T09:50:56;99351.63;;;8.28;38.84
7433;BME280;32233;49.500;7.764;2023-04-04T09:53:24;99368.66;;;7.75;38.35
7433;BME280;32233;49.500;7.764;2023-04-04T09:55:53;99361.78;;;7.82;38.84
7433;BME280;32233;49.500;7.764;2023-04-04T09:58:24;99358.88;;;8.75;38.86
7433;BME280;32233;49.500;7.764;2023-04-04T10:00:54;99354.31;;;9.24;37.59
7433;BME280;32233;49.500;7.764;2023-04-04T10:03:22;99365.44;;;7.47;40.35
7433;BME280;32233;49.500;7.764;2023-04-04T10:05:58;99362.09;;;7.79;37.92
7433;BME280;32233;49.500;7.764;2023-04-04T10:08:27;99363.19;;;8.59;38.21
7433;BME280;32233;49.500;7.764;2023-04-04T10:11:04;99367.94;;;8.56;38.40
7433;BME280;32233;49.500;7.764;2023-04-04T10:13:38;99363.88;;;9.64;36.09
7433;BME280;32233;49.500;7.764;2023-04-04T10:16:08;99353.91;;;9.43;38.29
7433;BME280;32233;49.500;7.764;2023-04-04T10:18:35;99355.91;;;9.33;36.19
7433;BME280;32233;49.500;7.764;2023-04-04T10:21:04;99367.28;;;7.54;38.83
7433;BME280;32233;49.500;7.764;2023-04-04T10:23:42;99357.69;;;8.85;38.20
7433;BME280;32233;49.500;7.764;2023-04-04T10:26:11;99360.53;;;9.39;37.54
7433;BME280;32233;49.500;7.764;2023-04-04T10:28:38;99348.03;;;9.64;35.89
7433;BME280;32233;49.500;7.764;2023-04-04T10:31:15;99345.84;;;11.12;34.99
7433;BME280;32233;49.500;7.764;2023-04-04T10:36:29;99352.69;;;9.54;36.00
7433;BME280;32233;49.500;7.764;2023-04-04T10:39:03;99353.13;;;9.66;36.29
7433;BME280;32233;49.500;7.764;2023-04-04T10:41:31;99347.44;;;10.31;35.44
7433;BME280;32233;49.500;7.764;2023-04-04T10:43:59;99343.28;;;11.04;34.49
7433;BME280;32233;49.500;7.764;2023-04-04T10:46:37;99348.31;;;9.70;34.88
7433;BME280;32233;49.500;7.764;2023-04-04T10:49:07;99354.69;;;7.82;39.72
7433;BME280;32233;49.500;7.764;2023-04-04T10:51:34;99352.63;;;9.31;37.62
7433;BME280;32233;49.500;7.764;2023-04-04T10:54:11;99345.63;;;9.78;36.32
7433;BME280;32233;49.500;7.764;2023-04-04T10:56:37;99338.69;;;9.85;36.90
7433;BME280;32233;49.500;7.764;2023-04-04T10:59:09;99341.94;;;9.64;35.71
7433;BME280;32233;49.500;7.764;2023-04-04T11:01:51;99329.13;;;9.53;36.61
7433;BME280;32233;49.500;7.764;2023-04-04T11:04:28;99327.16;;;10.47;35.52
7433;BME280;32233;49.500;7.764;2023-04-04T11:09:55;99321.19;;;9.84;33.19
7433;BME280;32233;49.500;7.764;2023-04-04T11:12:27;99323.81;;;10.07;34.55
7433;BME280;32233;49.500;7.764;2023-04-04T11:14:55;99330.28;;;9.50;34.35
7433;BME280;32233;49.500;7.764;2023-04-04T11:20:10;99312.22;;;11.43;30.85
7433;BME280;32233;49.500;7.764;2023-04-04T11:22:40;99313.81;;;11.73;32.24
7433;BME280;32233;49.500;7.764;2023-04-04T11:25:32;99322.28;;;11.32;31.76
7433;BME280;32233;49.500;7.764;2023-04-04T11:28:04;99321.63;;;11.45;35.27
7433;BME280;32233;49.500;7.764;2023-04-04T11:30:36;99319.09;;;13.70;35.53
7433;BME280;32233;49.500;7.764;2023-04-04T11:33:02;99309.28;;;13.63;34.80
7433;BME280;32233;49.500;7.764;2023-04-04T11:35:37;99305.84;;;14.03;28.96
7433;BME280;32233;49.500;7.764;2023-04-04T11:38:11;99298.41;;;12.76;30.13
7433;BME280;32233;49.500;7.764;2023-04-04T11:40:39;99306.75;;;11.44;32.12
7433;BME280;32233;49.500;7.764;2023-04-04T11:43:08;99306.03;;;12.29;31.34
7433;BME280;32233;49.500;7.764;2023-04-04T11:45:35;99289.81;;;13.56;29.50
7433;BME280;32233;49.500;7.764;2023-04-04T11:48:04;99301.69;;;12.78;29.38
7433;BME280;32233;49.500;7.764;2023-04-04T11:50:38;99287.31;;;13.42;28.41
7433;BME280;32233;49.500;7.764;2023-04-04T11:53:06;99285.13;;;13.10;29.88
7433;BME280;32233;49.500;7.764;2023-04-04T11:55:41;99290.91;;;12.86;29.42
7433;BME280;32233;49.500;7.764;2023-04-04T11:58:10;99284.16;;;13.73;28.56
7433;BME280;32233;49.500;7.764;2023-04-04T12:00:39;99291.84;;;12.44;29.25
7433;BME280;32233;49.500;7.764;2023-04-04T12:03:09;99283.38;;;13.92;27.39
7433;BME280;32233;49.500;7.764;2023-04-04T12:05:38;99288.56;;;13.39;27.34
7433;BME280;32233;49.500;7.764;2023-04-04T12:08:07;99285.50;;;11.95;30.69
7433;BME280;32233;49.500;7.764;2023-04-04T12:10:34;99286.97;;;13.17;28.87
7433;BME280;32233;49.500;7.764;2023-04-04T12:13:05;99276.25;;;12.97;28.87
7433;BME280;32233;49.500;7.764;2023-04-04T12:15:34;99260.38;;;13.45;28.11
7433;BME280;32233;49.500;7.764;2023-04-04T12:18:05;99285.41;;;14.03;27.30
7433;BME280;32233;49.500;7.764;2023-04-04T12:20:31;99284.81;;;12.29;28.66
7433;BME280;32233;49.500;7.764;2023-04-04T12:22:58;99277.91;;;11.85;29.47
7433;BME280;32233;49.500;7.764;2023-04-04T12:25:25;99275.19;;;12.84;27.83
7433;BME280;32233;49.500;7.764;2023-04-04T12:27:54;99279.06;;;12.82;29.04
7433;BME280;32233;49.500;7.764;2023-04-04T12:30:22;99271.03;;;13.71;27.32
7433;BME280;32233;49.500;7.764;2023-04-04T12:32:49;99269.03;;;13.73;27.76
7433;BME280;32233;49.500;7.764;2023-04-04T12:35:17;99270.34;;;13.36;26.26
7433;BME280;32233;49.500;7.764;2023-04-04T12:40:28;99266.47;;;13.32;28.89
7433;BME280;32233;49.500;7.764;2023-04-04T12:42:56;99254.53;;;13.21;28.10
7433;BME280;32233;49.500;7.764;2023-04-04T12:45:25;99260.25;;;14.19;27.21
7433;BME280;32233;49.500;7.764;2023-04-04T12:47:55;99270.78;;;11.71;31.91
7433;BME280;32233;49.500;7.764;2023-04-04T12:50:26;99251.84;;;12.73;29.25
7433;BME280;32233;49.500;7.764;2023-04-04T12:52:53;99242.19;;;13.48;28.53
7433;BME280;32233;49.500;7.764;2023-04-04T12:55:33;99248.81;;;13.99;27.80
7433;BME280;32233;49.500;7.764;2023-04-04T12:58:00;99255.16;;;11.76;29.53
7433;BME280;32233;49.500;7.764;2023-04-04T13:00:28;99233.28;;;13.21;29.12
7433;BME280;32233;49.500;7.764;2023-04-04T13:02:55;99238.25;;;12.83;28.64
7433;BME280;32233;49.500;7.764;2023-04-04T13:05:24;99235.31;;;13.12;29.80
7433;BME280;32233;49.500;7.764;2023-04-04T13:08:04;99230.06;;;12.78;29.79
7433;BME280;32233;49.500;7.764;2023-04-04T13:10:58;99233.78;;;12.55;29.25
7433;BME280;32233;49.500;7.764;2023-04-04T13:13:38;99232.91;;;12.42;28.93
7433;BME280;32233;49.500;7.764;2023-04-04T13:16:06;99236.00;;;11.96;29.27
7433;BME280;32233;49.500;7.764;2023-04-04T13:18:39;99232.97;;;11.99;29.09
7433;BME280;32233;49.500;7.764;2023-04-04T13:21:11;99223.28;;;12.40;28.78
7433;BME280;32233;49.500;7.764;2023-04-04T13:23:39;99209.25;;;12.47;30.63
7433;BME280;32233;49.500;7.764;2023-04-04T13:26:07;99220.41;;;11.43;30.49
7433;BME280;32233;49.500;7.764;2023-04-04T13:28:34;99229.41;;;11.49;30.61
7433;BME280;32233;49.500;7.764;2023-04-04T13:31:06;99220.63;;;9.48;35.29
7433;BME280;32233;49.500;7.764;2023-04-04T13:33:33;99208.63;;;9.83;34.75
7433;BME280;32233;49.500;7.764;2023-04-04T13:36:00;99214.69;;;9.46;34.67